TimeEST,TemperatureF,Dew PointF,Humidity,Sea Level PressureIn,VisibilityMPH,Wind Direction,Wind SpeedMPH,Gust SpeedMPH,PrecipitationIn,Events,Conditions,WindDirDegrees,DateUTC
12:53 AM,70.0,64.9,84,30.03,10.0,ESE,11.5,-,N/A,,Partly Cloudy,110,2013-11-26 05:53:00
1:27 AM,69.8,64.4,83,30.01,10.0,East,10.4,-,N/A,,Mostly Cloudy,100,2013-11-26 06:27:00
1:38 AM,69.8,64.4,83,30.00,10.0,East,9.2,-,N/A,,Scattered Clouds,100,2013-11-26 06:38:00
1:53 AM,70.0,66.0,87,30.01,10.0,ESE,9.2,-,N/A,,Partly Cloudy,110,2013-11-26 06:53:00
2:53 AM,70.0,66.0,87,29.99,10.0,ESE,10.4,-,N/A,,Mostly Cloudy,110,2013-11-26 07:53:00
3:53 AM,70.0,66.9,90,29.99,10.0,SE,8.1,-,N/A,,Overcast,130,2013-11-26 08:53:00
4:25 AM,71.6,68.0,88,29.98,10.0,ESE,6.9,-,N/A,,Overcast,110,2013-11-26 09:25:00
4:37 AM,71.6,68.0,88,29.97,10.0,ESE,6.9,-,N/A,,Overcast,110,2013-11-26 09:37:00
4:53 AM,71.1,68.0,90,29.98,10.0,ESE,4.6,-,N/A,,Overcast,110,2013-11-26 09:53:00
5:06 AM,71.6,68.0,88,29.97,10.0,ESE,5.8,-,N/A,,Overcast,120,2013-11-26 10:06:00
5:30 AM,71.6,68.0,88,29.97,10.0,ESE,5.8,-,0.01,Rain,Light Rain,110,2013-11-26 10:30:00
5:41 AM,69.8,69.8,100,29.97,10.0,ESE,4.6,-,0.01,,Mostly Cloudy,110,2013-11-26 10:41:00
5:53 AM,70.0,69.1,97,29.98,10.0,ESE,4.6,-,0.01,,Mostly Cloudy,110,2013-11-26 10:53:00
6:42 AM,69.8,69.8,100,29.97,10.0,ESE,5.8,-,N/A,,Mostly Cloudy,120,2013-11-26 11:42:00
6:53 AM,71.1,69.1,93,29.98,10.0,SE,4.6,-,N/A,,Mostly Cloudy,130,2013-11-26 11:53:00
7:00 AM,71.6,69.8,94,29.97,10.0,SE,5.8,-,N/A,,Mostly Cloudy,130,2013-11-26 12:00:00
7:23 AM,71.6,69.8,94,29.97,10.0,SE,5.8,-,N/A,,Mostly Cloudy,130,2013-11-26 12:23:00
7:53 AM,72.0,70.0,93,29.97,10.0,SE,9.2,-,N/A,,Scattered Clouds,130,2013-11-26 12:53:00
8:53 AM,73.0,70.0,90,29.96,10.0,SSE,9.2,-,N/A,,Partly Cloudy,150,2013-11-26 13:53:00
9:53 AM,75.9,71.1,85,29.97,10.0,SE,11.5,-,N/A,,Partly Cloudy,140,2013-11-26 14:53:00
10:53 AM,79.0,70.0,74,29.95,10.0,SSE,13.8,-,N/A,,Scattered Clouds,160,2013-11-26 15:53:00
11:04 AM,80.6,71.6,74,29.94,10.0,SSE,13.8,20.7,N/A,,Mostly Cloudy,150,2013-11-26 16:04:00
11:53 AM,82.0,70.0,67,29.93,10.0,South,9.2,-,N/A,,Mostly Cloudy,170,2013-11-26 16:53:00
12:53 PM,84.0,68.0,58,29.88,10.0,South,13.8,21.9,N/A,,Scattered Clouds,170,2013-11-26 17:53:00
1:53 PM,84.9,69.1,59,29.86,10.0,South,15.0,24.2,N/A,,Mostly Cloudy,180,2013-11-26 18:53:00
2:53 PM,82.9,70.0,65,29.84,10.0,SSW,11.5,-,N/A,,Clear,200,2013-11-26 19:53:00
3:53 PM,82.0,70.0,67,29.84,10.0,SSW,12.7,19.6,N/A,,Clear,200,2013-11-26 20:53:00
4:53 PM,81.0,71.1,72,29.83,10.0,South,15.0,23.0,N/A,,Clear,190,2013-11-26 21:53:00
5:53 PM,79.0,72.0,79,29.84,10.0,SSW,10.4,-,N/A,,Clear,200,2013-11-26 22:53:00
6:53 PM,78.1,72.0,81,29.85,10.0,South,6.9,-,N/A,,Clear,190,2013-11-26 23:53:00
7:53 PM,78.1,73.0,84,29.86,10.0,SSW,6.9,-,0.00,Rain,Light Rain,200,2013-11-27 00:53:00
8:53 PM,75.9,73.9,94,29.85,7.0,South,8.1,-,0.05,Rain,Light Rain,180,2013-11-27 01:53:00
9:53 PM,75.9,73.9,94,29.84,5.0,South,10.4,-,0.12,Rain,Rain,180,2013-11-27 02:53:00
10:53 PM,75.0,73.0,94,29.82,5.0,South,8.1,-,0.17,Rain,Light Rain,180,2013-11-27 03:53:00
11:42 PM,75.2,71.6,89,29.80,9.0,South,8.1,-,0.03,,Scattered Clouds,180,2013-11-27 04:42:00
11:53 PM,73.9,72.0,93,29.81,8.0,South,12.7,19.6,0.03,,Mostly Cloudy,180,2013-11-27 04:53:00